Time;durP1;ratioP1;P1;durP2;ratioP2;P2;SDS_P1;SDS_P2;PMS_P1;PMS_P2;Temp;Humidity;BMP_temperature;BMP_pressure;BME280_temperature;BME280_humidity;BME280_pressure;Samples;Min_cycle;Max_cycle;Signal;HPM_P1;HPM_P2
2023/06/20 00:00:42;;;;;;;13.05;9.35;;;19.00;99.90;;;;;;5092901;28;20097;-61
2023/06/20 00:03:09;;;;;;;9.98;8.32;;;19.00;99.90;;;;;;5092870;28;20066;-62
2023/06/20 00:05:35;;;;;;;12.02;8.45;;;18.90;99.90;;;;;;5093081;28;20044;-60
2023/06/20 00:08:01;;;;;;;11.85;9.00;;;19.00;99.90;;;;;;5093566;28;20048;-62
2023/06/20 00:10:27;;;;;;;12.73;8.60;;;18.90;99.90;;;;;;5093008;28;20064;-62
2023/06/20 00:12:54;;;;;;;12.65;9.75;;;18.90;99.90;;;;;;5092671;28;20066;-61
2023/06/20 00:15:25;;;;;;;13.00;9.63;;;18.90;99.90;;;;;;5092274;28;20073;-61
2023/06/20 00:17:52;;;;;;;10.18;8.73;;;18.90;99.90;;;;;;5093109;28;20059;-61
2023/06/20 00:20:19;;;;;;;16.75;9.57;;;18.90;99.90;;;;;;5092351;28;20048;-62
2023/06/20 00:22:46;;;;;;;11.88;8.50;;;18.80;99.90;;;;;;5092822;28;20052;-63
2023/06/20 00:25:12;;;;;;;14.98;9.20;;;18.90;99.90;;;;;;5093050;28;20048;-61
2023/06/20 00:27:38;;;;;;;12.07;8.43;;;18.90;99.90;;;;;;5092817;28;20105;-60
2023/06/20 00:30:05;;;;;;;12.70;8.95;;;18.90;99.90;;;;;;5092181;28;20059;-61
2023/06/20 00:32:32;;;;;;;14.93;9.23;;;18.90;99.90;;;;;;5092585;28;20379;-62
2023/06/20 00:34:58;;;;;;;11.63;8.82;;;18.90;99.90;;;;;;5092133;28;20361;-61
2023/06/20 00:37:26;;;;;;;11.57;8.60;;;18.80;99.90;;;;;;5092445;28;20048;-62
2023/06/20 00:39:53;;;;;;;11.38;8.73;;;18.80;99.90;;;;;;5092231;28;20074;-62
2023/06/20 00:42:23;;;;;;;10.63;8.55;;;18.90;99.90;;;;;;5092424;28;20048;-62
2023/06/20 00:44:52;;;;;;;11.20;8.35;;;18.90;99.90;;;;;;5091389;28;20388;-62
2023/06/20 00:47:19;;;;;;;10.82;8.15;;;18.90;99.90;;;;;;5092319;28;20040;-61
2023/06/20 00:49:48;;;;;;;12.07;8.65;;;18.90;99.90;;;;;;5092219;28;20105;-61
2023/06/20 00:52:19;;;;;;;12.55;8.00;;;18.90;99.90;;;;;;5092008;28;20044;-62
2023/06/20 00:54:47;;;;;;;14.18;8.43;;;18.90;99.90;;;;;;5092327;28;20044;-62
2023/06/20 00:57:15;;;;;;;10.43;7.85;;;18.90;99.90;;;;;;5092212;28;20044;-61
2023/06/20 00:59:45;;;;;;;10.30;8.18;;;19.00;99.90;;;;;;5092314;28;20040;-61
2023/06/20 01:02:14;;;;;;;9.13;7.50;;;19.00;99.90;;;;;;5091878;28;20044;-62
2023/06/20 01:04:42;;;;;;;8.95;7.28;;;19.00;99.90;;;;;;5091188;28;20388;-62
2023/06/20 01:07:18;;;;;;;10.52;7.97;;;19.00;99.90;;;;;;5092091;28;20058;-61
2023/06/20 01:10:07;;;;;;;10.80;7.78;;;19.00;99.90;;;;;;5092256;28;20056;-62
2023/06/20 01:12:55;;;;;;;10.52;7.88;;;19.00;99.90;;;;;;5072128;28;20040;-62
2023/06/20 01:15:35;;;;;;;11.07;7.65;;;19.00;99.90;;;;;;5071879;28;20052;-61
2023/06/20 01:18:25;;;;;;;11.10;7.00;;;19.10;99.90;;;;;;5082029;28;20101;-62
2023/06/20 01:21:02;;;;;;;9.90;7.65;;;19.10;99.90;;;;;;5091469;28;20048;-62
2023/06/20 01:23:32;;;;;;;10.20;6.90;;;19.10;99.90;;;;;;5091331;28;20127;-61
2023/06/20 01:26:17;;;;;;;9.75;7.18;;;19.10;99.90;;;;;;5091032;28;20071;-62
2023/06/20 01:29:08;;;;;;;9.57;7.07;;;19.10;99.90;;;;;;5092014;28;20040;-60
2023/06/20 01:31:37;;;;;;;12.95;7.80;;;19.10;99.90;;;;;;5091366;28;20109;-61
2023/06/20 01:34:09;;;;;;;10.20;7.60;;;19.10;99.90;;;;;;5091343;28;20353;-61
2023/06/20 01:36:38;;;;;;;9.98;7.40;;;19.10;99.90;;;;;;5091623;28;20411;-61
2023/06/20 01:39:15;;;;;;;11.27;7.35;;;19.10;99.90;;;;;;5091631;28;20522;-61
2023/06/20 01:41:44;;;;;;;11.25;7.72;;;19.00;99.90;;;;;;5091542;28;20052;-62
2023/06/20 01:44:14;;;;;;;10.15;7.20;;;19.10;99.90;;;;;;5091057;28;20468;-61
2023/06/20 01:46:40;;;;;;;12.02;7.10;;;19.10;99.90;;;;;;5091756;28;20040;-60
2023/06/20 01:49:10;;;;;;;9.98;8.23;;;19.10;99.90;;;;;;5091921;28;20048;-62
2023/06/20 01:51:36;;;;;;;13.15;8.23;;;19.10;99.90;;;;;;5091182;28;20055;-62
2023/06/20 01:54:04;;;;;;;12.43;8.38;;;19.10;99.90;;;;;;5091328;28;20055;-62
2023/06/20 01:56:32;;;;;;;10.90;7.55;;;19.10;99.90;;;;;;5093335;28;20109;-62
2023/06/20 01:59:00;;;;;;;12.77;8.43;;;19.00;99.90;;;;;;5095509;28;20090;-63
2023/06/20 02:01:29;;;;;;;9.65;7.53;;;19.00;99.90;;;;;;5095089;28;20405;-61
2023/06/20 02:03:56;;;;;;;10.88;7.97;;;19.00;99.90;;;;;;5095017;28;20048;-61
2023/06/20 02:06:24;;;;;;;11.70;8.90;;;19.00;99.90;;;;;;5095222;28;20040;-60
2023/06/20 02:08:52;;;;;;;9.38;7.95;;;19.00;99.90;;;;;;5095488;28;20044;-62
2023/06/20 02:11:21;;;;;;;11.35;8.32;;;19.00;99.90;;;;;;5094962;28;20048;-62
2023/06/20 02:13:51;;;;;;;14.05;8.48;;;19.00;99.90;;;;;;5094794;28;20058;-62
2023/06/20 02:16:21;;;;;;;9.68;8.20;;;19.00;99.90;;;;;;5095216;28;20044;-61
2023/06/20 02:18:48;;;;;;;10.52;8.10;;;19.00;99.90;;;;;;5094911;28;20403;-61
2023/06/20 02:21:19;;;;;;;11.60;8.88;;;19.00;99.90;;;;;;5094796;28;20059;-61
2023/06/20 02:23:49;;;;;;;10.85;8.00;;;19.00;99.90;;;;;;5094740;28;20044;-62
2023/06/20 02:26:18;;;;;;;11.45;8.40;;;19.00;99.90;;;;;;5095170;28;20051;-62
2023/06/20 02:28:54;;;;;;;12.55;8.68;;;19.00;99.90;;;;;;5095285;28;20040;-61
2023/06/20 02:31:22;;;;;;;11.60;8.13;;;19.00;99.90;;;;;;5094348;28;20052;-61
2023/06/20 02:33:52;;;;;;;10.30;7.82;;;19.00;99.90;;;;;;5094210;28;20476;-61
2023/06/20 02:36:25;;;;;;;11.00;8.57;;;19.00;99.90;;;;;;5094798;28;20064;-61
2023/06/20 02:38:55;;;;;;;11.68;8.88;;;19.10;99.90;;;;;;5094874;28;20048;-62
2023/06/20 02:41:21;;;;;;;11.10;9.05;;;19.10;99.90;;;;;;5094391;28;20109;-62
2023/06/20 02:43:48;;;;;;;11.13;8.77;;;19.00;99.90;;;;;;5094444;28;20052;-62
2023/06/20 02:46:36;;;;;;;12.02;9.00;;;19.00;99.90;;;;;;5094609;28;20039;-62
2023/06/20 02:49:33;;;;;;;13.82;9.60;;;19.10;99.90;;;;;;5094965;28;20044;-62
2023/06/20 02:52:05;;;;;;;11.90;9.15;;;19.00;99.90;;;;;;5094440;28;20241;-62
2023/06/20 02:54:48;;;;;;;12.25;9.50;;;19.00;99.90;;;;;;5094439;28;20086;-62
2023/06/20 02:57:19;;;;;;;14.32;9.85;;;19.00;99.90;;;;;;5093547;28;20051;-61
2023/06/20 02:59:58;;;;;;;13.38;9.52;;;19.00;99.90;;;;;;5094512;28;20106;-61
2023/06/20 03:02:29;;;;;;;13.48;9.55;;;19.00;99.90;;;;;;5094081;28;20373;-61
2023/06/20 03:05:00;;;;;;;13.73;10.52;;;19.00;99.90;;;;;;5094205;28;20444;-61
2023/06/20 03:07:28;;;;;;;12.38;10.25;;;19.00;99.90;;;;;;5093710;28;20510;-62
2023/06/20 03:09:56;;;;;;;14.82;10.00;;;19.00;99.90;;;;;;5094284;28;20059;-61
2023/06/20 03:12:23;;;;;;;12.25;10.05;;;19.00;99.90;;;;;;5093889;28;20044;-62
2023/06/20 03:14:49;;;;;;;13.32;10.27;;;19.00;99.90;;;;;;5093608;28;20041;-61
2023/06/20 03:17:15;;;;;;;13.93;10.32;;;19.00;99.90;;;;;;5093991;28;20350;-61
2023/06/20 03:19:42;;;;;;;14.90;11.18;;;19.00;99.90;;;;;;5093669;28;20385;-61
2023/06/20 03:22:08;;;;;;;13.60;10.35;;;19.00;99.90;;;;;;5093871;28;20062;-62
2023/06/20 03:24:35;;;;;;;14.98;11.45;;;19.00;99.90;;;;;;5093667;28;20043;-61
2023/06/20 03:27:01;;;;;;;14.23;10.68;;;19.00;99.90;;;;;;5093462;28;20368;-63
2023/06/20 03:29:27;;;;;;;15.07;11.32;;;19.00;99.90;;;;;;5093812;28;20044;-62
2023/06/20 03:31:53;;;;;;;15.65;11.80;;;19.00;99.90;;;;;;5093198;28;20497;-63
2023/06/20 03:34:20;;;;;;;14.90;11.73;;;19.00;99.90;;;;;;5093463;28;20044;-62
2023/06/20 03:36:46;;;;;;;15.65;11.38;;;19.00;99.90;;;;;;5093959;28;20047;-60
2023/06/20 03:39:12;;;;;;;17.30;12.10;;;19.00;99.90;;;;;;5093590;28;20048;-61
2023/06/20 03:41:38;;;;;;;17.65;12.23;;;19.00;99.90;;;;;;5092982;28;20450;-63
2023/06/20 03:44:04;;;;;;;19.65;11.88;;;19.00;99.90;;;;;;5093157;28;20085;-62
2023/06/20 03:46:31;;;;;;;14.57;12.18;;;19.00;99.90;;;;;;5093657;28;20055;-62
2023/06/20 03:48:57;;;;;;;15.88;12.60;;;19.10;99.90;;;;;;5093204;28;20376;-60
2023/06/20 03:51:23;;;;;;;17.15;12.95;;;19.10;99.90;;;;;;5092909;28;20142;-61
2023/06/20 03:53:49;;;;;;;17.88;12.57;;;19.10;99.90;;;;;;5093102;28;20036;-63
2023/06/20 03:56:15;;;;;;;14.68;11.85;;;18.90;99.90;;;;;;5093435;28;20058;-61
2023/06/20 03:58:42;;;;;;;16.08;12.75;;;19.00;99.90;;;;;;5093379;28;20089;-63
2023/06/20 04:01:08;;;;;;;16.38;13.48;;;19.00;99.90;;;;;;5092774;28;20048;-62
2023/06/20 04:03:34;;;;;;;14.98;13.15;;;19.10;99.90;;;;;;5092927;28;20109;-61
2023/06/20 04:06:02;;;;;;;15.38;12.95;;;19.10;99.90;;;;;;5093002;28;20056;-62
2023/06/20 04:08:29;;;;;;;15.68;13.27;;;19.10;99.90;;;;;;5093165;28;20527;-63
2023/06/20 04:10:56;;;;;;;17.20;12.90;;;19.10;99.90;;;;;;5092809;28;20047;-62
2023/06/20 04:13:22;;;;;;;14.98;13.18;;;19.10;99.90;;;;;;5092654;28;20048;-61
2023/06/20 04:15:48;;;;;;;18.27;13.18;;;19.20;99.90;;;;;;5094108;28;20067;-63
2023/06/20 04:18:15;;;;;;;15.50;12.45;;;19.10;99.90;;;;;;5092598;28;20044;-61
2023/06/20 04:20:44;;;;;;;15.10;12.25;;;19.20;99.90;;;;;;5092679;28;20048;-62
2023/06/20 04:23:10;;;;;;;16.88;12.48;;;19.20;99.90;;;;;;5092082;28;20470;-62
2023/06/20 04:25:36;;;;;;;17.65;12.73;;;19.20;99.90;;;;;;5092807;28;20071;-62
2023/06/20 04:28:03;;;;;;;17.48;13.35;;;19.20;99.90;;;;;;5092862;28;20059;-63
2023/06/20 04:30:31;;;;;;;17.25;12.65;;;19.20;99.90;;;;;;5092092;28;20059;-63
2023/06/20 04:32:57;;;;;;;17.10;13.15;;;19.30;99.90;;;;;;5092348;28;20051;-60
2023/06/20 04:35:24;;;;;;;15.75;12.80;;;19.30;99.90;;;;;;5092404;28;20056;-61
2023/06/20 04:37:51;;;;;;;18.88;13.65;;;19.30;99.90;;;;;;5092446;28;20048;-62
2023/06/20 04:40:17;;;;;;;19.27;14.00;;;19.30;99.90;;;;;;5092312;28;20460;-62
2023/06/20 04:42:45;;;;;;;16.60;13.13;;;19.30;99.90;;;;;;5092047;28;20044;-62
2023/06/20 04:45:11;;;;;;;18.30;13.57;;;19.30;99.90;;;;;;5085355;28;20053;-62
2023/06/20 04:47:38;;;;;;;17.00;14.40;;;19.30;99.90;;;;;;5082886;28;20085;-63
2023/06/20 04:50:05;;;;;;;17.52;13.27;;;19.40;99.90;;;;;;5080728;28;20101;-62
2023/06/20 04:52:31;;;;;;;14.85;12.70;;;19.40;99.90;;;;;;5081980;28;20631;-63
2023/06/20 04:55:02;;;;;;;18.83;13.18;;;19.30;99.90;;;;;;5082133;28;20514;-62
2023/06/20 04:57:29;;;;;;;17.27;12.80;;;19.30;99.90;;;;;;5090066;28;20048;-61
2023/06/20 04:59:56;;;;;;;15.50;12.68;;;19.40;99.90;;;;;;5092177;28;20065;-62
2023/06/20 05:02:23;;;;;;;17.90;12.75;;;19.50;99.90;;;;;;5091672;28;20056;-63
2023/06/20 05:04:49;;;;;;;17.35;13.88;;;19.50;99.90;;;;;;5092101;28;20472;-62
2023/06/20 05:07:16;;;;;;;15.65;12.77;;;19.50;99.90;;;;;;5076412;28;20104;-61
2023/06/20 05:09:43;;;;;;;14.52;12.40;;;19.50;99.90;;;;;;5071852;28;20048;-61
2023/06/20 05:12:09;;;;;;;16.10;13.10;;;19.60;99.90;;;;;;5089280;28;20380;-62
2023/06/20 05:14:36;;;;;;;19.33;13.60;;;19.60;99.90;;;;;;5091138;28;20399;-62
2023/06/20 05:17:02;;;;;;;18.73;13.95;;;19.60;99.90;;;;;;5091872;28;20354;-64
2023/06/20 05:19:29;;;;;;;18.33;13.70;;;19.60;99.90;;;;;;5092019;28;20066;-63
2023/06/20 05:21:55;;;;;;;17.25;12.18;;;19.70;99.90;;;;;;5091627;28;20048;-63
2023/06/20 05:24:21;;;;;;;15.38;13.07;;;19.70;99.90;;;;;;5091452;28;20044;-63
2023/06/20 05:26:47;;;;;;;16.75;12.88;;;19.80;99.90;;;;;;5091774;28;20048;-62
2023/06/20 05:29:14;;;;;;;16.30;13.23;;;19.80;99.90;;;;;;5091956;28;20051;-63
2023/06/20 05:31:41;;;;;;;14.52;13.00;;;19.80;99.90;;;;;;5093422;28;20048;-63
2023/06/20 05:34:07;;;;;;;16.70;12.73;;;19.80;99.90;;;;;;5095648;28;20059;-63
2023/06/20 05:36:33;;;;;;;16.70;14.15;;;19.80;99.90;;;;;;5096282;28;20059;-62
2023/06/20 05:39:00;;;;;;;14.10;12.57;;;19.90;99.90;;;;;;5096094;28;20052;-62
2023/06/20 05:41:26;;;;;;;18.05;13.52;;;19.90;99.90;;;;;;5095392;28;20612;-62
2023/06/20 05:43:52;;;;;;;18.75;13.27;;;20.10;99.90;;;;;;5095631;28;20071;-63
2023/06/20 05:46:19;;;;;;;18.42;14.40;;;20.10;99.90;;;;;;5095940;28;20044;-62
2023/06/20 05:48:48;;;;;;;18.48;13.52;;;20.20;99.90;;;;;;5095531;28;20063;-60
2023/06/20 05:51:14;;;;;;;18.90;13.77;;;20.20;99.90;;;;;;5095381;28;20040;-63
2023/06/20 05:53:41;;;;;;;19.40;15.32;;;20.30;99.90;;;;;;5095764;28;20109;-65
2023/06/20 05:56:09;;;;;;;17.25;14.07;;;20.40;99.90;;;;;;5095993;28;20072;-64
2023/06/20 05:58:36;;;;;;;18.27;14.05;;;20.60;99.90;;;;;;5093482;28;20640;-63
2023/06/20 06:01:03;;;;;;;18.48;14.18;;;21.00;99.90;;;;;;5095349;28;20236;-63
2023/06/20 06:03:32;;;;;;;15.48;13.23;;;21.40;99.90;;;;;;5094861;28;20052;-63
2023/06/20 06:05:59;;;;;;;17.20;13.63;;;22.00;99.90;;;;;;5095411;28;20415;-61
2023/06/20 06:08:25;;;;;;;14.55;13.02;;;22.40;99.90;;;;;;5095417;28;20055;-63
2023/06/20 06:10:54;;;;;;;17.33;13.68;;;22.90;99.90;;;;;;5094957;28;20083;-60
2023/06/20 06:13:21;;;;;;;17.63;13.45;;;23.40;99.90;;;;;;5094804;28;20039;-58
2023/06/20 06:15:47;;;;;;;17.05;14.02;;;23.50;99.90;;;;;;5094754;28;20380;-61
2023/06/20 06:18:14;;;;;;;23.15;13.90;;;23.20;99.90;;;;;;5095360;28;20048;-63
2023/06/20 06:20:40;;;;;;;25.08;15.10;;;22.80;99.90;;;;;;5094923;28;20085;-62
2023/06/20 06:23:06;;;;;;;18.38;14.07;;;22.50;99.90;;;;;;5094501;28;20055;-61
2023/06/20 06:25:32;;;;;;;44.80;17.75;;;22.30;99.90;;;;;;5095113;28;20044;-62
2023/06/20 06:27:59;;;;;;;22.23;14.50;;;22.20;99.90;;;;;;5094821;28;20060;-64
2023/06/20 06:30:25;;;;;;;20.35;15.75;;;22.10;99.90;;;;;;5095196;28;20052;-63
2023/06/20 06:32:51;;;;;;;25.60;14.18;;;22.00;99.90;;;;;;5095035;28;20048;-64
2023/06/20 06:35:18;;;;;;;19.73;14.90;;;21.90;99.90;;;;;;5094077;28;20051;-64
2023/06/20 06:37:46;;;;;;;20.92;14.23;;;21.80;99.90;;;;;;5094743;28;20044;-62
2023/06/20 06:40:13;;;;;;;19.52;13.77;;;21.90;99.90;;;;;;5094721;28;20527;-64
2023/06/20 06:42:39;;;;;;;17.35;14.85;;;21.90;99.90;;;;;;5093807;28;20070;-63
2023/06/20 06:45:06;;;;;;;23.05;19.30;;;21.90;99.90;;;;;;5095205;28;20476;-64
2023/06/20 06:47:34;;;;;;;18.35;14.25;;;21.90;99.90;;;;;;5095068;28;20460;-63
2023/06/20 06:50:00;;;;;;;17.52;14.55;;;21.80;99.90;;;;;;5094732;28;20101;-62
2023/06/20 06:52:28;;;;;;;100.78;19.45;;;21.80;99.90;;;;;;5093766;28;20427;-62
2023/06/20 06:54:55;;;;;;;19.15;14.82;;;21.90;99.90;;;;;;5095229;28;20058;-64
2023/06/20 06:57:21;;;;;;;19.92;14.98;;;21.80;99.90;;;;;;5094361;28;20400;-64
2023/06/20 06:59:48;;;;;;;17.50;13.88;;;21.90;99.90;;;;;;5094569;28;20480;-64
2023/06/20 07:02:14;;;;;;;16.65;13.95;;;21.90;99.90;;;;;;5093930;28;20499;-66
2023/06/20 07:04:40;;;;;;;17.02;13.68;;;22.00;99.90;;;;;;5096277;28;20121;-65
2023/06/20 07:07:06;;;;;;;18.45;14.43;;;22.10;99.90;;;;;;5096030;28;20082;-64
2023/06/20 07:09:33;;;;;;;18.52;13.63;;;22.20;99.90;;;;;;5096587;28;20448;-64
2023/06/20 07:11:59;;;;;;;17.05;13.48;;;22.30;99.90;;;;;;5095584;28;20063;-65
2023/06/20 07:14:26;;;;;;;16.48;13.43;;;22.30;99.90;;;;;;5095102;28;20513;-65
2023/06/20 07:16:52;;;;;;;14.52;12.90;;;22.40;99.90;;;;;;5096197;28;20044;-65
2023/06/20 07:19:18;;;;;;;14.68;13.10;;;22.50;99.90;;;;;;5096445;28;20059;-65
2023/06/20 07:21:45;;;;;;;16.00;13.20;;;22.50;99.90;;;;;;5095840;28;20392;-66
2023/06/20 07:24:11;;;;;;;14.48;12.23;;;22.50;99.90;;;;;;5095877;28;20429;-65
2023/06/20 07:26:37;;;;;;;17.90;13.45;;;22.60;99.90;;;;;;5096323;28;20062;-64
2023/06/20 07:29:03;;;;;;;16.13;13.32;;;22.70;99.90;;;;;;5095413;28;20048;-65
2023/06/20 07:31:29;;;;;;;15.25;13.35;;;22.70;99.90;;;;;;5094976;28;20074;-65
2023/06/20 07:33:56;;;;;;;15.73;14.05;;;22.60;99.90;;;;;;5094524;28;20052;-63
2023/06/20 07:36:22;;;;;;;19.48;15.88;;;22.70;99.90;;;;;;5094483;28;20060;-60
2023/06/20 07:38:48;;;;;;;32.85;14.40;;;22.80;99.90;;;;;;5093876;28;20063;-63
2023/06/20 07:41:14;;;;;;;14.93;12.60;;;22.70;99.90;;;;;;5094679;28;20121;-64
2023/06/20 07:43:41;;;;;;;15.15;13.27;;;22.60;99.90;;;;;;5093813;28;20740;-63
2023/06/20 07:46:07;;;;;;;35.22;14.88;;;22.70;99.90;;;;;;5094806;28;20063;-62
2023/06/20 07:48:33;;;;;;;23.50;13.25;;;22.80;99.90;;;;;;5094069;28;20117;-62
2023/06/20 07:51:00;;;;;;;14.68;12.73;;;22.90;99.90;;;;;;5093715;28;20082;-64
2023/06/20 07:53:26;;;;;;;14.68;12.57;;;22.90;99.90;;;;;;5092149;28;20048;-63
2023/06/20 07:55:54;;;;;;;50.08;18.15;;;22.90;99.90;;;;;;5094455;28;20066;-60
2023/06/20 07:58:20;;;;;;;15.98;13.25;;;22.90;99.90;;;;;;5094019;28;20054;-63
2023/06/20 08:00:47;;;;;;;18.25;14.15;;;23.10;99.90;;;;;;5093799;28;20130;-62
2023/06/20 08:03:13;;;;;;;13.90;12.50;;;23.10;99.90;;;;;;5094929;28;20052;-65
2023/06/20 08:05:39;;;;;;;14.20;12.70;;;23.20;99.90;;;;;;5094666;28;20117;-64
2023/06/20 08:08:06;;;;;;;15.05;13.55;;;23.40;99.90;;;;;;5093966;28;20079;-63
2023/06/20 08:10:32;;;;;;;25.08;16.92;;;23.40;99.90;;;;;;5093152;28;20043;-65
2023/06/20 08:12:58;;;;;;;29.70;14.23;;;23.50;99.90;;;;;;5096230;28;20055;-63
2023/06/20 08:15:24;;;;;;;27.85;15.60;;;23.40;99.90;;;;;;5093765;28;20040;-63
2023/06/20 08:17:52;;;;;;;20.25;13.55;;;23.40;99.90;;;;;;5094102;28;20378;-61
2023/06/20 08:20:19;;;;;;;15.75;13.30;;;23.50;99.90;;;;;;5093070;28;20044;-63
2023/06/20 08:22:46;;;;;;;15.73;12.85;;;23.40;99.90;;;;;;5092457;28;20048;-63
2023/06/20 08:25:12;;;;;;;15.23;12.65;;;23.40;99.90;;;;;;5093242;28;20444;-63
2023/06/20 08:27:38;;;;;;;14.43;13.05;;;23.40;99.90;;;;;;5093087;28;20052;-62
2023/06/20 08:30:05;;;;;;;14.45;12.95;;;23.30;99.90;;;;;;5092681;28;20372;-64
2023/06/20 08:32:32;;;;;;;14.52;12.88;;;23.40;99.90;;;;;;5092059;28;20044;-63
2023/06/20 08:34:58;;;;;;;16.80;14.65;;;23.50;99.90;;;;;;5092498;28;20044;-63
2023/06/20 08:37:24;;;;;;;14.13;12.60;;;23.60;99.90;;;;;;5092748;28;20044;-61
2023/06/20 08:39:50;;;;;;;21.13;13.57;;;23.90;99.90;;;;;;5092659;28;20059;-61
2023/06/20 08:42:17;;;;;;;15.02;13.43;;;24.30;99.90;;;;;;5092045;28;20056;-63
2023/06/20 08:44:43;;;;;;;14.18;12.15;;;24.60;99.90;;;;;;5093062;28;20040;-61
2023/06/20 08:47:09;;;;;;;16.38;14.32;;;24.50;99.90;;;;;;5092823;28;20414;-62
2023/06/20 08:49:36;;;;;;;15.73;12.88;;;24.60;99.90;;;;;;5092669;28;20048;-61
2023/06/20 08:52:08;;;;;;;14.85;13.38;;;24.70;99.90;;;;;;5092908;28;20044;-63
2023/06/20 08:54:39;;;;;;;15.20;13.27;;;24.80;99.90;;;;;;5094531;28;20044;-63
2023/06/20 08:57:06;;;;;;;15.40;13.45;;;25.00;99.90;;;;;;5093916;28;20117;-62
2023/06/20 08:59:35;;;;;;;15.52;13.88;;;25.20;99.90;;;;;;5093354;28;20048;-63
2023/06/20 09:02:03;;;;;;;13.52;12.20;;;25.40;99.90;;;;;;5092724;28;20117;-63
2023/06/20 09:04:30;;;;;;;16.13;14.10;;;25.70;99.90;;;;;;5092225;28;20049;-63
2023/06/20 09:06:56;;;;;;;15.38;13.05;;;25.80;99.90;;;;;;5091760;28;20044;-63
2023/06/20 09:09:23;;;;;;;17.35;13.57;;;25.80;99.90;;;;;;5092816;28;20460;-64
2023/06/20 09:11:58;;;;;;;16.52;13.73;;;25.70;99.90;;;;;;5092842;28;20118;-63
2023/06/20 09:14:29;;;;;;;26.80;22.67;;;25.80;99.90;;;;;;5093202;28;20043;-58
2023/06/20 09:16:56;;;;;;;15.77;14.07;;;26.00;99.90;;;;;;5094299;28;20357;-62
2023/06/20 09:19:23;;;;;;;14.90;13.40;;;26.10;99.90;;;;;;5093687;28;20055;-64
2023/06/20 09:21:49;;;;;;;16.52;13.77;;;26.20;99.90;;;;;;5094259;28;20048;-64
2023/06/20 09:24:20;;;;;;;15.18;12.93;;;26.30;99.90;;;;;;5093482;28;20052;-64
2023/06/20 09:26:49;;;;;;;16.25;12.82;;;26.40;99.90;;;;;;5093363;28;20048;-63
2023/06/20 09:29:17;;;;;;;15.20;13.60;;;26.40;99.90;;;;;;5092976;28;20048;-62
2023/06/20 09:31:49;;;;;;;14.75;12.57;;;26.60;99.90;;;;;;5092302;28;20044;-63
2023/06/20 09:34:19;;;;;;;13.57;12.05;;;26.60;99.90;;;;;;5092929;28;20055;-63
2023/06/20 09:36:46;;;;;;;18.88;13.73;;;26.80;99.90;;;;;;5092460;28;20060;-63
2023/06/20 09:39:20;;;;;;;16.08;12.55;;;26.80;99.90;;;;;;5092145;28;20062;-62
2023/06/20 09:41:49;;;;;;;14.70;13.15;;;26.80;99.90;;;;;;5092017;28;20126;-64
2023/06/20 09:44:19;;;;;;;31.27;13.88;;;27.00;99.90;;;;;;5091628;28;20105;-63
2023/06/20 09:46:46;;;;;;;17.77;12.70;;;27.30;99.90;;;;;;5091579;28;20116;-65
2023/06/20 09:49:15;;;;;;;48.28;14.07;;;27.50;99.90;;;;;;5091815;28;20040;-63
2023/06/20 09:51:46;;;;;;;61.22;15.75;;;27.60;99.90;;;;;;5090318;28;20059;-62
2023/06/20 09:54:15;;;;;;;17.65;11.40;;;27.60;99.90;;;;;;5091712;28;20036;-62
2023/06/20 09:56:54;;;;;;;13.63;10.88;;;27.60;99.90;;;;;;5092160;28;20055;-63
2023/06/20 09:59:24;;;;;;;11.48;10.15;;;27.80;99.90;;;;;;5090884;28;20044;-65
2023/06/20 10:01:50;;;;;;;14.30;11.85;;;27.90;99.90;;;;;;5090945;28;20078;-65
2023/06/20 10:04:18;;;;;;;9.50;8.50;;;27.90;99.90;;;;;;5091648;28;20048;-65
2023/06/20 10:06:45;;;;;;;11.60;10.27;;;28.20;99.90;;;;;;5091139;28;20486;-65
2023/06/20 10:09:11;;;;;;;1379.95;294.17;;;28.10;99.90;;;;;;5091567;28;20048;-65
2023/06/20 10:11:39;;;;;;;404.95;55.67;;;28.20;99.90;;;;;;5090874;28;20052;-65
2023/06/20 10:14:06;;;;;;;62.58;14.18;;;28.40;99.90;;;;;;5090847;28;20047;-63
2023/06/20 10:16:33;;;;;;;8.98;8.07;;;28.50;99.90;;;;;;5091385;28;20098;-66
2023/06/20 10:19:15;;;;;;;16.70;8.02;;;28.50;99.90;;;;;;5095545;28;20044;-66
2023/06/20 10:21:58;;;;;;;8.52;7.72;;;28.70;99.80;;;;;;5094524;28;20380;-62
2023/06/20 10:24:29;;;;;;;8.82;7.63;;;28.70;99.40;;;;;;5095201;28;20473;-65
2023/06/20 10:27:00;;;;;;;7.88;6.88;;;29.00;99.40;;;;;;5095118;28;20052;-64
2023/06/20 10:29:27;;;;;;;8.43;6.95;;;29.10;98.60;;;;;;5095072;28;20110;-63
2023/06/20 10:31:56;;;;;;;8.80;7.95;;;29.10;99.10;;;;;;5094028;28;20063;-63
2023/06/20 10:34:36;;;;;;;9.40;7.35;;;29.10;98.80;;;;;;5094685;28;20391;-64
2023/06/20 10:37:27;;;;;;;8.35;7.43;;;29.30;98.60;;;;;;5095084;28;20055;-63
2023/06/20 10:39:57;;;;;;;9.07;8.15;;;29.20;98.00;;;;;;5094793;28;20044;-63
2023/06/20 10:42:43;;;;;;;8.65;7.63;;;29.10;98.30;;;;;;5094140;28;20052;-64
2023/06/20 10:45:17;;;;;;;9.18;7.72;;;29.20;98.10;;;;;;5094815;28;20079;-64
2023/06/20 10:47:43;;;;;;;8.70;7.18;;;29.30;98.20;;;;;;5094473;28;20360;-64
2023/06/20 10:50:16;;;;;;;6.28;5.43;;;29.40;98.20;;;;;;5094259;28;20040;-63
2023/06/20 10:52:42;;;;;;;7.80;6.95;;;29.40;97.60;;;;;;5094122;28;20044;-64
2023/06/20 10:55:13;;;;;;;7.35;6.60;;;29.30;97.60;;;;;;5094765;28;20048;-64
2023/06/20 10:57:49;;;;;;;7.38;6.35;;;29.30;97.60;;;;;;5094647;28;20467;-63
2023/06/20 11:00:18;;;;;;;7.15;6.45;;;29.40;96.70;;;;;;5094486;28;20105;-62
2023/06/20 11:02:55;;;;;;;8.38;6.20;;;29.50;97.20;;;;;;5093774;28;20510;-63
2023/06/20 11:05:29;;;;;;;8.20;7.05;;;29.70;96.40;;;;;;5094331;28;20079;-63
2023/06/20 11:08:08;;;;;;;10.40;7.50;;;29.80;96.60;;;;;;5094148;28;20539;-63
2023/06/20 11:10:38;;;;;;;7.57;6.75;;;29.60;96.40;;;;;;5094393;28;20052;-64
2023/06/20 11:13:06;;;;;;;12.48;8.65;;;29.40;96.60;;;;;;5093660;28;20414;-64
2023/06/20 11:15:34;;;;;;;7.40;6.70;;;29.10;97.00;;;;;;5094434;28;20369;-61
2023/06/20 11:18:03;;;;;;;95.80;22.48;;;29.00;97.20;;;;;;5094272;28;20112;-62
2023/06/20 11:20:35;;;;;;;7.60;6.78;;;29.00;97.40;;;;;;5094000;28;20117;-62
2023/06/20 11:23:06;;;;;;;7.28;5.80;;;29.00;97.50;;;;;;5074123;28;20048;-63
2023/06/20 11:25:37;;;;;;;10.70;6.25;;;29.10;97.30;;;;;;5075282;28;20102;-61
2023/06/20 11:28:11;;;;;;;7.53;5.93;;;29.30;96.90;;;;;;5073827;28;20041;-62
2023/06/20 11:30:45;;;;;;;9.50;6.10;;;29.40;96.90;;;;;;5074846;28;20401;-60
2023/06/20 11:33:16;;;;;;;5.82;5.00;;;29.40;96.90;;;;;;5093515;28;20422;-61
2023/06/20 11:35:47;;;;;;;7.82;6.05;;;29.60;96.90;;;;;;5093758;28;20044;-64
2023/06/20 11:38:16;;;;;;;8.05;6.35;;;29.70;97.10;;;;;;5093895;28;20105;-62
2023/06/20 11:40:45;;;;;;;7.07;6.38;;;29.70;97.00;;;;;;5093868;28;20048;-62
2023/06/20 11:43:25;;;;;;;8.25;6.63;;;29.80;97.00;;;;;;5093664;28;20105;-63
2023/06/20 11:46:00;;;;;;;8.52;6.78;;;29.80;96.60;;;;;;5093897;28;20048;-61
2023/06/20 11:48:28;;;;;;;6.05;5.07;;;29.90;96.90;;;;;;5093650;28;20456;-62
2023/06/20 11:51:03;;;;;;;7.20;6.28;;;30.00;96.40;;;;;;5093237;28;20044;-62
2023/06/20 11:53:35;;;;;;;6.82;6.10;;;29.90;96.70;;;;;;5093047;28;20044;-61
2023/06/20 11:56:09;;;;;;;12.15;6.25;;;30.10;96.70;;;;;;5093546;28;20056;-61
2023/06/20 11:58:46;;;;;;;8.02;5.78;;;30.10;96.50;;;;;;5093609;28;20371;-62
2023/06/20 12:01:18;;;;;;;6.90;6.15;;;30.20;96.70;;;;;;5092922;28;20349;-63
2023/06/20 12:03:45;;;;;;;6.65;5.97;;;30.30;96.40;;;;;;5093088;28;20055;-59
2023/06/20 12:06:28;;;;;;;7.22;5.70;;;30.30;96.50;;;;;;5093613;28;20055;-61
2023/06/20 12:09:00;;;;;;;10.07;5.43;;;30.30;96.30;;;;;;5093163;28;20055;-62
2023/06/20 12:11:27;;;;;;;7.28;5.60;;;30.10;96.40;;;;;;5092847;28;20048;-65
2023/06/20 12:13:54;;;;;;;9.70;5.35;;;30.20;96.40;;;;;;5092699;28;20055;-65
2023/06/20 12:16:21;;;;;;;10.43;7.03;;;30.20;96.50;;;;;;5092902;28;20134;-61
2023/06/20 12:18:48;;;;;;;6.85;6.18;;;30.10;96.40;;;;;;5093389;28;20058;-63
2023/06/20 12:21:14;;;;;;;8.52;6.20;;;29.70;96.30;;;;;;5092913;28;20044;-62
2023/06/20 12:23:41;;;;;;;8.60;6.10;;;29.60;96.60;;;;;;5092551;28;20055;-62
2023/06/20 12:26:07;;;;;;;6.95;5.90;;;29.50;96.70;;;;;;5093258;28;20109;-63
2023/06/20 12:28:35;;;;;;;6.78;6.15;;;29.50;97.00;;;;;;5092741;28;20457;-62
2023/06/20 12:31:01;;;;;;;7.85;6.40;;;29.50;96.90;;;;;;5092272;28;20475;-64
2023/06/20 12:33:28;;;;;;;9.20;6.35;;;29.40;96.90;;;;;;5093560;28;20044;-63
2023/06/20 12:35:54;;;;;;;8.50;6.82;;;29.60;97.10;;;;;;5093216;28;20052;-61
2023/06/20 12:38:21;;;;;;;7.30;6.57;;;29.50;96.80;;;;;;5093013;28;20151;-62
2023/06/20 12:40:47;;;;;;;10.57;7.35;;;29.50;97.00;;;;;;5092009;28;20052;-62